Time;durP1;ratioP1;P1;durP2;ratioP2;P2;SDS_P1;SDS_P2;PMS_P1;PMS_P2;Temp;Humidity;BMP_temperature;BMP_pressure;BME280_temperature;BME280_humidity;BME280_pressure;Samples;Min_cycle;Max_cycle;Signal;HPM_P1;HPM_P2
2022/01/18 00:01:48;;;;;;;102.10;94.15;;;;;;;2.91;74.06;102878.44;5005043;28;20053;-68
2022/01/18 00:04:14;;;;;;;84.30;77.63;;;;;;;2.83;74.53;102874.88;5005284;28;20041;-67
2022/01/18 00:06:42;;;;;;;125.60;116.72;;;;;;;2.78;74.45;102868.75;4988589;28;20074;-68
2022/01/18 00:09:09;;;;;;;155.02;144.30;;;;;;;2.62;74.40;102869.38;5006316;28;20441;-68
2022/01/18 00:11:42;;;;;;;92.93;85.05;;;;;;;2.65;74.59;102877.19;5003940;28;20473;-68
2022/01/18 00:14:21;;;;;;;78.05;71.93;;;;;;;3.02;73.63;102869.94;4999092;28;20801;-68
2022/01/18 00:17:04;;;;;;;96.78;89.50;;;;;;;2.98;73.17;102883.69;5007035;28;20042;-67
2022/01/18 00:19:30;;;;;;;95.10;87.15;;;;;;;2.87;73.73;102887.03;5000944;28;20092;-67
2022/01/18 00:22:10;;;;;;;104.05;96.30;;;;;;;2.78;74.12;102896.38;5006606;28;20116;-67
2022/01/18 00:24:38;;;;;;;90.82;83.30;;;;;;;2.89;74.04;102899.97;5006001;28;20041;-67
2022/01/18 00:27:09;;;;;;;91.25;85.40;;;;;;;3.07;73.70;102894.22;5006530;28;20128;-67
2022/01/18 00:29:38;;;;;;;72.23;65.17;;;;;;;2.90;73.68;102900.00;5006240;28;20050;-68
2022/01/18 00:32:12;;;;;;;98.90;89.70;;;;;;;2.98;73.35;102905.31;5005805;28;20085;-68
2022/01/18 00:34:41;;;;;;;91.40;84.65;;;;;;;3.04;73.40;102909.69;5012191;28;20132;-67
2022/01/18 00:37:24;;;;;;;93.95;86.60;;;;;;;3.05;73.27;102908.84;5006298;28;20064;-68
2022/01/18 00:39:51;;;;;;;98.00;90.32;;;;;;;3.28;72.51;102912.63;5007489;28;20045;-68
2022/01/18 00:42:17;;;;;;;76.57;69.88;;;;;;;3.34;72.72;102915.28;5005704;28;20066;-68
2022/01/18 00:44:44;;;;;;;67.15;60.95;;;;;;;3.45;72.74;102918.88;5006022;28;20073;-67
2022/01/18 00:47:11;;;;;;;75.43;68.93;;;;;;;3.49;72.74;102920.66;5006628;28;20111;-67
2022/01/18 00:49:42;;;;;;;74.80;67.88;;;;;;;3.31;73.96;102920.44;5005899;28;20133;-68
2022/01/18 00:52:09;;;;;;;67.25;62.38;;;;;;;3.52;73.69;102915.50;5006289;28;20113;-68
2022/01/18 00:54:40;;;;;;;102.20;93.55;;;;;;;3.43;74.32;102925.78;5005980;28;20053;-68
2022/01/18 00:57:07;;;;;;;68.90;63.10;;;;;;;3.47;74.15;102919.78;5004576;28;20041;-69
2022/01/18 00:59:33;;;;;;;80.88;75.53;;;;;;;3.70;73.72;102933.88;5002100;28;20050;-68
2022/01/18 01:02:00;;;;;;;167.38;155.18;;;;;;;3.65;73.61;102943.34;5001833;28;20053;-68
2022/01/18 01:04:31;;;;;;;67.22;61.53;;;;;;;3.82;73.23;102935.75;5008942;28;20046;-69
2022/01/18 01:06:58;;;;;;;93.10;86.07;;;;;;;3.89;72.93;102937.53;5008866;28;20446;-69
2022/01/18 01:09:24;;;;;;;85.18;77.10;;;;;;;4.04;72.48;102942.91;5009239;28;20409;-68
2022/01/18 01:11:51;;;;;;;99.47;92.63;;;;;;;4.01;72.50;102949.78;5008882;28;20042;-68
2022/01/18 01:14:21;;;;;;;96.90;89.90;;;;;;;4.21;72.24;102946.53;5008742;28;20092;-68
2022/01/18 01:16:54;;;;;;;90.28;84.05;;;;;;;4.03;72.59;102943.75;5008900;28;20046;-68
2022/01/18 01:19:48;;;;;;;98.38;91.28;;;;;;;4.15;72.70;102941.28;5009244;28;20441;-68
2022/01/18 01:41:50;;;;;;;82.32;76.25;;;;;;;4.14;73.07;102944.72;5005875;28;20632;-67
2022/01/18 01:44:25;;;;;;;96.35;89.07;;;;;;;4.27;72.70;102930.16;5012214;28;20050;-67
2022/01/18 01:46:51;;;;;;;151.57;141.20;;;;;;;4.17;73.36;102942.19;5012561;28;20111;-67
2022/01/18 01:49:19;;;;;;;81.60;74.78;;;;;;;4.22;73.36;102943.06;5012423;28;20054;-67
2022/01/18 01:51:47;;;;;;;101.18;93.93;;;;;;;4.47;72.70;102939.00;5012768;28;20153;-67
2022/01/18 01:54:16;;;;;;;91.43;84.20;;;;;;;4.67;71.85;102949.53;5012340;28;20417;-67
2022/01/18 01:56:42;;;;;;;98.05;90.43;;;;;;;4.22;73.20;102947.41;5014679;28;20498;-67
2022/01/18 01:59:10;;;;;;;89.75;83.35;;;;;;;4.53;72.52;102944.22;5012916;28;20042;-67
2022/01/18 02:01:41;;;;;;;99.50;92.03;;;;;;;4.56;72.31;102940.78;5014393;28;20096;-67
2022/01/18 02:04:08;;;;;;;220.13;206.02;;;;;;;4.37;72.35;102937.16;5012108;28;20062;-67
2022/01/18 02:06:34;;;;;;;75.82;69.00;;;;;;;4.57;72.67;102935.59;5012204;28;20046;-67
2022/01/18 02:09:00;;;;;;;155.55;144.32;;;;;;;4.39;72.61;102938.94;5011858;28;20108;-67
2022/01/18 02:11:28;;;;;;;95.65;87.75;;;;;;;4.67;72.08;102934.81;5011993;28;20460;-68
2022/01/18 02:13:56;;;;;;;120.03;112.65;;;;;;;4.93;71.13;102935.00;5011624;28;20096;-67
2022/01/18 02:21:51;;;;;;;100.65;93.50;;;;;;;4.78;72.01;102930.56;5010868;28;20064;-68
2022/01/18 02:24:19;;;;;;;94.13;85.93;;;;;;;5.04;70.67;102922.06;5011425;28;20054;-68
2022/01/18 02:26:45;;;;;;;91.15;83.93;;;;;;;5.02;71.00;102923.78;5011525;28;20037;-68
2022/01/18 02:29:12;;;;;;;84.55;77.13;;;;;;;4.97;70.75;102920.28;5012038;28;20050;-68
2022/01/18 02:31:39;;;;;;;98.30;91.13;;;;;;;5.19;70.65;102927.34;5011615;28;20119;-68
2022/01/18 02:34:07;;;;;;;74.65;67.80;;;;;;;4.99;70.62;102928.97;5009150;28;20049;-68
2022/01/18 02:36:33;;;;;;;117.22;109.57;;;;;;;4.85;71.37;102929.75;5011121;28;20077;-68
2022/01/18 02:39:01;;;;;;;115.95;108.05;;;;;;;5.07;71.02;102927.25;5010974;28;20548;-68
2022/01/18 02:41:30;;;;;;;75.40;68.35;;;;;;;5.39;70.30;102926.56;5011134;28;20052;-68
2022/01/18 02:43:58;;;;;;;94.40;88.20;;;;;;;4.93;71.46;102918.50;5011085;28;20041;-68
2022/01/18 02:46:24;;;;;;;104.60;96.38;;;;;;;5.24;70.49;102918.72;5011085;28;20050;-68
2022/01/18 02:48:50;;;;;;;103.10;95.32;;;;;;;5.54;69.21;102928.38;5010858;28;20050;-68
2022/01/18 02:51:17;;;;;;;89.97;82.40;;;;;;;5.53;69.49;102923.16;5011442;28;20076;-68
2022/01/18 02:54:00;;;;;;;69.57;61.53;;;;;;;5.65;69.08;102920.63;5015551;28;20045;-68
2022/01/18 02:56:30;;;;;;;105.32;97.85;;;;;;;5.23;70.27;102934.31;5023863;28;20045;-68
2022/01/18 02:59:05;;;;;;;77.80;71.50;;;;;;;5.40;70.07;102938.72;5011247;28;20457;-68
2022/01/18 03:04:15;;;;;;;73.60;65.55;;;;;;;5.48;69.79;102937.88;5010393;28;20056;-68
2022/01/18 03:06:42;;;;;;;66.50;61.13;;;;;;;5.24;70.69;102942.13;5009651;28;20045;-68
2022/01/18 03:09:08;;;;;;;101.65;94.50;;;;;;;5.05;71.25;102945.47;5007832;28;20080;-68
2022/01/18 03:11:36;;;;;;;90.53;83.75;;;;;;;5.07;71.35;102953.25;5011198;28;20042;-68
2022/01/18 03:14:02;;;;;;;80.65;73.97;;;;;;;5.26;71.04;102949.91;5010597;28;20088;-68
2022/01/18 03:16:29;;;;;;;71.35;66.57;;;;;;;5.34;70.57;102948.22;5010965;28;20042;-68
2022/01/18 03:18:55;;;;;;;94.25;87.32;;;;;;;5.56;69.55;102950.06;5010883;28;20046;-68
2022/01/18 03:21:21;;;;;;;61.78;55.75;;;;;;;5.60;69.98;102956.16;5011100;28;20077;-68
2022/01/18 03:23:52;;;;;;;89.75;84.20;;;;;;;5.43;70.62;102957.81;5010661;28;20121;-68
2022/01/18 03:26:19;;;;;;;;;;;;;;;5.59;69.91;102957.88;5011264;28;20050;-68
2022/01/18 03:28:46;;;;;;;92.72;85.63;;;;;;;5.43;70.44;102947.41;5010653;28;20535;-68
2022/01/18 03:31:12;;;;;;;82.35;76.07;;;;;;;5.45;70.77;102946.53;5010514;28;20049;-68
2022/01/18 03:33:38;;;;;;;71.40;65.97;;;;;;;5.68;70.25;102946.66;5009706;28;20100;-68
2022/01/18 03:36:06;;;;;;;65.40;60.17;;;;;;;5.44;70.65;102943.94;5010765;28;20042;-68
2022/01/18 03:38:32;;;;;;;70.32;65.55;;;;;;;5.56;70.28;102949.19;5009026;28;20072;-68
2022/01/18 03:41:00;;;;;;;80.00;73.88;;;;;;;5.68;69.66;102954.44;5006736;28;20088;-69
2022/01/18 03:43:27;;;;;;;77.20;71.80;;;;;;;5.11;71.71;102955.03;5002941;28;20100;-69
2022/01/18 03:46:00;;;;;;;58.47;53.83;;;;;;;5.37;71.11;102963.84;5008528;28;20042;-69
2022/01/18 03:48:30;;;;;;;59.42;54.90;;;;;;;5.62;70.43;102957.00;5008450;28;20042;-69
2022/01/18 03:50:57;;;;;;;205.13;192.70;;;;;;;5.06;72.12;102956.75;5009097;28;20120;-69
2022/01/18 03:53:23;;;;;;;67.80;61.88;;;;;;;5.41;71.26;102963.00;5008081;28;20133;-69
2022/01/18 03:55:51;;;;;;;86.13;80.18;;;;;;;5.24;72.21;102964.66;5008162;28;20048;-69
2022/01/18 03:58:17;;;;;;;71.47;65.25;;;;;;;5.00;73.11;102967.97;5020348;28;20045;-69
2022/01/18 04:00:44;;;;;;;88.82;82.35;;;;;;;5.31;71.86;102963.81;5013755;28;20049;-69
2022/01/18 04:03:12;;;;;;;62.30;57.00;;;;;;;5.68;70.79;102960.53;5008825;28;20470;-69
2022/01/18 04:05:38;;;;;;;75.22;68.55;;;;;;;5.44;72.17;102963.00;5006823;28;20049;-69
2022/01/18 04:08:06;;;;;;;58.40;54.15;;;;;;;5.67;71.32;102958.78;5005152;28;20422;-69
2022/01/18 04:10:32;;;;;;;51.25;46.50;;;;;;;5.66;71.46;102959.63;5005260;28;20490;-69
2022/01/18 04:12:59;;;;;;;50.17;45.22;;;;;;;5.56;72.13;102965.69;5004993;28;20046;-69
2022/01/18 04:15:26;;;;;;;54.42;49.13;;;;;;;5.77;71.39;102960.53;4999273;28;20407;-69
2022/01/18 04:29:01;;;;;;;44.58;40.22;;;;;;;5.78;71.97;102971.84;5009300;28;20054;-69
2022/01/18 04:31:29;;;;;;;56.42;51.58;;;;;;;5.94;71.50;102970.19;5014032;28;20033;-69
2022/01/18 04:33:56;;;;;;;66.10;60.85;;;;;;;5.89;72.41;102975.38;5007830;28;20421;-68
2022/01/18 04:36:26;;;;;;;67.68;62.53;;;;;;;6.06;71.73;102980.66;5009321;28;20137;-68
2022/01/18 04:38:53;;;;;;;82.85;76.95;;;;;;;5.96;73.08;102982.34;5007284;28;20065;-68
2022/01/18 04:41:25;;;;;;;96.38;89.45;;;;;;;5.62;74.89;102989.13;5007306;28;20050;-68
2022/01/18 04:44:06;;;;;;;116.55;109.30;;;;;;;5.73;75.12;102995.25;5007124;28;20049;-68
2022/01/18 04:49:17;;;;;;;116.78;108.47;;;;;;;5.81;75.68;102992.66;5007316;28;20175;-67
2022/01/18 04:51:46;;;;;;;108.32;101.28;;;;;;;5.97;75.21;102997.09;4997203;28;20466;-67
2022/01/18 04:54:15;;;;;;;117.18;108.93;;;;;;;5.81;76.07;102995.28;5005143;28;20407;-67
2022/01/18 04:59:25;;;;;;;131.23;122.60;;;;;;;5.73;76.91;103004.78;5009553;28;20099;-67
2022/01/18 05:01:51;;;;;;;130.63;122.55;;;;;;;5.91;76.40;102998.84;5009962;28;20116;-67
2022/01/18 05:04:18;;;;;;;175.15;164.57;;;;;;;5.66;77.04;102996.06;5008345;28;20050;-67
2022/01/18 05:06:46;;;;;;;144.38;134.90;;;;;;;5.97;76.33;102993.63;5008508;28;20045;-67
2022/01/18 05:09:12;;;;;;;147.52;138.40;;;;;;;5.97;76.15;102991.03;5008573;28;20048;-67
2022/01/18 05:11:47;;;;;;;166.25;156.73;;;;;;;5.95;76.34;103001.41;5007348;28;20096;-67
2022/01/18 05:14:23;;;;;;;189.32;178.30;;;;;;;5.82;76.90;103000.50;5003683;28;20038;-67
2022/01/18 05:16:57;;;;;;;182.75;171.85;;;;;;;5.96;76.58;103002.28;5007426;28;20046;-67
2022/01/18 05:19:28;;;;;;;211.30;198.68;;;;;;;5.90;77.04;103008.38;5008537;28;20045;-67
2022/01/18 05:24:40;;;;;;;156.15;146.85;;;;;;;6.17;76.09;103025.81;5008829;28;20049;-67
2022/01/18 05:27:06;;;;;;;171.05;160.82;;;;;;;6.08;76.38;103012.75;5007804;28;20062;-67
2022/01/18 05:29:33;;;;;;;182.45;170.30;;;;;;;5.91;77.05;103004.03;5008112;28;20064;-67
2022/01/18 05:31:59;;;;;;;150.82;140.90;;;;;;;6.20;75.88;103016.28;5005487;28;20069;-67
2022/01/18 05:34:25;;;;;;;160.40;151.07;;;;;;;6.12;76.35;103020.59;5007752;28;20087;-67
2022/01/18 05:36:52;;;;;;;160.93;151.70;;;;;;;5.68;77.91;103016.91;5006828;28;20054;-68
2022/01/18 05:39:21;;;;;;;133.10;125.72;;;;;;;5.83;77.55;103019.59;5007724;28;20042;-67
2022/01/18 05:41:48;;;;;;;131.88;123.75;;;;;;;5.82;77.45;103016.13;5006749;28;20057;-68
2022/01/18 05:44:14;;;;;;;135.27;126.70;;;;;;;5.81;77.08;103027.38;5006759;28;20054;-67
2022/01/18 05:46:41;;;;;;;108.97;101.55;;;;;;;5.90;76.77;103024.00;5004768;28;20050;-68
2022/01/18 05:49:07;;;;;;;119.00;111.70;;;;;;;6.18;75.52;103035.34;4989675;28;20111;-68
2022/01/18 05:51:34;;;;;;;131.13;121.25;;;;;;;6.06;75.95;103030.97;5005045;28;20092;-68
2022/01/18 05:54:00;;;;;;;144.48;135.68;;;;;;;5.83;76.76;103038.69;5005138;28;20481;-68
2022/01/18 05:56:28;;;;;;;169.20;160.18;;;;;;;6.00;75.84;103038.78;5012209;28;20112;-68
2022/01/18 05:58:56;;;;;;;193.00;182.13;;;;;;;6.15;75.03;103035.34;5007669;28;20046;-68
2022/01/18 06:01:27;;;;;;;142.35;134.90;;;;;;;5.76;76.00;103043.88;4999458;28;20493;-68
2022/01/18 06:04:08;;;;;;;160.45;150.48;;;;;;;6.05;75.46;103033.59;5007257;28;20520;-68
2022/01/18 06:06:54;;;;;;;126.75;119.00;;;;;;;6.26;74.15;103041.47;4995815;28;20468;-68
2022/01/18 06:09:22;;;;;;;119.00;111.43;;;;;;;6.40;73.76;103044.09;5007817;28;20049;-68
2022/01/18 06:11:50;;;;;;;118.03;111.45;;;;;;;6.33;74.00;103045.81;5006818;28;20073;-68
2022/01/18 06:14:16;;;;;;;131.55;123.93;;;;;;;6.28;74.46;103042.34;4998753;28;20555;-68
2022/01/18 06:16:43;;;;;;;126.70;117.82;;;;;;;6.32;73.85;103054.50;5007315;28;20042;-68
2022/01/18 06:19:09;;;;;;;136.13;126.53;;;;;;;6.39;73.70;103060.63;5007935;28;20049;-68
2022/01/18 06:21:36;;;;;;;135.77;128.13;;;;;;;6.43;73.35;103063.22;5008632;28;20216;-68
2022/01/18 06:24:02;;;;;;;141.27;132.85;;;;;;;6.19;74.24;103061.44;5010464;28;20041;-68
2022/01/18 06:26:29;;;;;;;139.40;130.05;;;;;;;6.46;73.32;103057.16;5010426;28;20046;-68
2022/01/18 06:28:58;;;;;;;99.90;93.40;;;;;;;6.29;73.50;103063.19;5011293;28;20049;-68
2022/01/18 06:31:24;;;;;;;147.45;138.52;;;;;;;6.48;73.22;103058.88;5010920;28;20104;-68
2022/01/18 06:33:51;;;;;;;141.02;132.50;;;;;;;6.39;73.23;103071.03;5016686;28;20050;-68
2022/01/18 06:36:17;;;;;;;143.75;135.40;;;;;;;6.54;72.65;103071.94;5021557;28;20526;-68
2022/01/18 06:38:43;;;;;;;130.10;122.47;;;;;;;6.57;72.55;103071.09;5010881;28;20050;-68
2022/01/18 06:41:11;;;;;;;164.10;155.43;;;;;;;6.56;72.48;103070.22;5010552;28;20089;-68
2022/01/18 06:43:37;;;;;;;154.63;146.25;;;;;;;6.63;72.71;103071.97;5003318;28;20050;-68
2022/01/18 06:46:05;;;;;;;147.68;139.95;;;;;;;6.58;72.72;103088.44;5010356;28;20599;-68
2022/01/18 06:48:31;;;;;;;135.80;127.63;;;;;;;6.55;72.92;103075.41;5010615;28;20100;-68
2022/01/18 06:50:58;;;;;;;128.82;121.60;;;;;;;6.63;73.01;103078.91;5009832;28;20477;-68
2022/01/18 06:53:24;;;;;;;130.38;123.18;;;;;;;6.68;72.93;103085.00;5010331;28;20104;-68
2022/01/18 06:55:54;;;;;;;153.90;146.15;;;;;;;6.42;74.31;103090.16;5012610;28;20049;-68
2022/01/18 06:58:20;;;;;;;165.00;154.93;;;;;;;5.96;77.03;103090.84;5009860;28;20042;-68
2022/01/18 07:00:47;;;;;;;129.55;122.63;;;;;;;6.21;76.19;103103.09;5010424;28;20047;-68
2022/01/18 07:03:15;;;;;;;173.82;164.60;;;;;;;6.35;75.80;103096.22;5002130;28;20050;-68
2022/01/18 07:05:42;;;;;;;174.77;165.73;;;;;;;6.32;76.17;103091.84;5010951;28;20042;-68
2022/01/18 07:08:08;;;;;;;125.70;118.90;;;;;;;6.54;75.41;103094.53;5009358;28;20524;-68
2022/01/18 07:10:34;;;;;;;136.63;129.02;;;;;;;6.43;75.60;103106.66;5010451;28;20069;-68
2022/01/18 07:13:01;;;;;;;115.40;108.63;;;;;;;6.65;75.17;103096.28;5002039;28;20551;-68
2022/01/18 07:15:27;;;;;;;121.05;113.60;;;;;;;6.71;74.67;103093.69;5010740;28;20060;-68
2022/01/18 07:17:54;;;;;;;117.72;111.07;;;;;;;6.60;75.37;103105.84;5002068;28;20046;-68
2022/01/18 07:20:21;;;;;;;161.98;152.52;;;;;;;6.59;74.96;103105.81;5010684;28;20054;-68
2022/01/18 07:22:48;;;;;;;124.07;117.25;;;;;;;6.60;74.83;103112.78;5008763;28;20132;-68
2022/01/18 07:25:17;;;;;;;187.27;177.07;;;;;;;6.67;74.65;103107.59;5011420;28;20045;-68
2022/01/18 07:27:43;;;;;;;148.18;140.00;;;;;;;6.64;74.35;103107.59;5007881;28;20061;-68
2022/01/18 07:30:10;;;;;;;136.65;129.13;;;;;;;6.68;74.33;103111.94;5010170;28;20096;-68
2022/01/18 07:32:37;;;;;;;178.13;168.52;;;;;;;6.71;74.32;103100.66;5009573;28;20050;-67
2022/01/18 07:35:03;;;;;;;179.73;170.75;;;;;;;6.57;74.78;103099.75;5009212;28;20073;-68
2022/01/18 07:37:31;;;;;;;174.00;165.18;;;;;;;6.74;74.35;103096.31;5010151;28;20468;-68
2022/01/18 07:39:57;;;;;;;130.85;123.95;;;;;;;6.18;76.14;103098.75;5010383;28;20493;-68
2022/01/18 07:42:24;;;;;;;172.05;163.88;;;;;;;6.45;75.87;103100.59;5009715;28;20050;-68
2022/01/18 07:44:50;;;;;;;164.18;155.43;;;;;;;6.59;75.01;103101.50;5010471;28;20049;-68
2022/01/18 07:47:17;;;;;;;176.43;168.07;;;;;;;6.67;75.47;103107.59;5010079;28;20538;-67
2022/01/18 07:49:43;;;;;;;187.45;178.10;;;;;;;6.66;75.37;103103.25;5010491;28;20038;-67
2022/01/18 07:52:10;;;;;;;170.90;160.48;;;;;;;6.50;76.09;103106.69;5010178;28;20108;-68
2022/01/18 07:54:37;;;;;;;112.43;106.03;;;;;;;6.78;75.29;103113.69;5010478;28;20104;-68
2022/01/18 07:57:04;;;;;;;118.28;112.05;;;;;;;6.89;75.15;103111.09;5008538;28;20107;-68
2022/01/18 07:59:30;;;;;;;191.85;182.25;;;;;;;6.55;76.36;103115.38;5007278;28;20100;-68
2022/01/18 08:01:57;;;;;;;123.38;116.50;;;;;;;6.61;76.66;103112.81;5010469;28;20104;-68
2022/01/18 08:04:24;;;;;;;112.32;105.43;;;;;;;6.47;77.60;103116.25;5011895;28;20037;-68
2022/01/18 08:06:50;;;;;;;145.15;138.07;;;;;;;6.69;76.43;103118.88;5009930;28;20123;-68
2022/01/18 08:09:19;;;;;;;121.45;114.25;;;;;;;6.62;77.17;103114.53;5010364;28;20108;-68
2022/01/18 08:11:47;;;;;;;121.35;114.00;;;;;;;6.59;77.03;103132.78;5010138;28;20135;-68
2022/01/18 08:14:14;;;;;;;157.48;149.20;;;;;;;6.73;76.79;103131.06;5009810;28;20050;-68
2022/01/18 08:16:50;;;;;;;114.97;108.53;;;;;;;6.95;76.25;103128.50;5009373;28;20076;-68
2022/01/18 08:19:18;;;;;;;111.88;105.93;;;;;;;7.10;75.58;103137.19;5008700;28;20077;-68
2022/01/18 08:21:44;;;;;;;136.98;130.05;;;;;;;7.15;75.35;103132.00;5009832;28;20042;-68
2022/01/18 08:24:11;;;;;;;131.40;124.88;;;;;;;7.37;74.73;103135.47;5009116;28;20061;-68
2022/01/18 08:26:37;;;;;;;132.82;125.95;;;;;;;7.27;75.08;103139.84;5009616;28;20128;-68
2022/01/18 08:29:05;;;;;;;132.80;125.32;;;;;;;7.43;74.80;103141.53;4997644;28;20104;-68
2022/01/18 08:31:31;;;;;;;154.20;146.20;;;;;;;7.48;74.25;103142.44;5007690;28;20096;-68
2022/01/18 08:33:58;;;;;;;147.88;140.55;;;;;;;7.54;73.46;103138.97;5008092;28;20050;-68
2022/01/18 08:36:24;;;;;;;143.82;135.98;;;;;;;7.15;75.53;103140.69;5010433;28;20075;-68
2022/01/18 08:38:52;;;;;;;139.45;131.43;;;;;;;6.87;76.31;103141.53;5028364;28;20417;-67
2022/01/18 08:41:18;;;;;;;137.27;130.35;;;;;;;7.22;75.10;103139.81;5018817;28;20046;-67
2022/01/18 08:43:44;;;;;;;148.68;140.90;;;;;;;7.26;74.80;103141.56;5009077;28;20104;-68
2022/01/18 08:46:12;;;;;;;174.68;166.57;;;;;;;7.06;75.12;103145.03;5008714;28;20057;-68
2022/01/18 08:48:39;;;;;;;154.50;146.82;;;;;;;6.75;76.63;103147.59;5009137;28;20038;-68
2022/01/18 08:51:06;;;;;;;145.93;138.43;;;;;;;7.14;75.01;103153.72;5009216;28;20100;-68
2022/01/18 08:53:32;;;;;;;167.60;159.25;;;;;;;7.16;74.91;103147.66;5008570;28;20053;-68
2022/01/18 08:55:58;;;;;;;128.25;122.13;;;;;;;7.05;75.11;103153.72;5008017;28;20045;-68
2022/01/18 08:58:26;;;;;;;141.20;133.73;;;;;;;7.24;74.56;103156.34;5008103;28;20045;-68
2022/01/18 09:00:53;;;;;;;131.65;125.10;;;;;;;7.34;74.12;103163.31;5010451;28;20104;-68
2022/01/18 09:03:21;;;;;;;156.15;148.30;;;;;;;7.44;74.12;103172.00;5007700;28;20153;-68
2022/01/18 09:05:48;;;;;;;127.35;121.65;;;;;;;7.57;73.48;103175.50;5008947;28;20061;-68
2022/01/18 09:08:14;;;;;;;141.00;134.07;;;;;;;7.49;73.53;103182.47;5008722;28;20050;-69
2022/01/18 09:10:41;;;;;;;142.88;136.10;;;;;;;7.67;72.75;103191.16;5009126;28;20099;-68
2022/01/18 09:13:07;;;;;;;140.68;133.20;;;;;;;7.65;73.06;103186.81;5008214;28;20057;-68
2022/01/18 09:15:34;;;;;;;127.72;121.80;;;;;;;7.52;73.87;103193.78;5009356;28;20108;-68
2022/01/18 09:18:00;;;;;;;154.70;147.27;;;;;;;7.61;72.81;103196.34;5008541;28;20092;-67
2022/01/18 09:20:28;;;;;;;147.43;141.13;;;;;;;7.70;72.73;103193.75;5025752;28;20044;-67
2022/01/18 09:22:59;;;;;;;136.60;129.10;;;;;;;7.90;71.93;103195.47;5014473;28;20050;-68
2022/01/18 09:25:26;;;;;;;;;;;;;;;7.69;72.46;103191.13;5031322;28;20063;-68
2022/01/18 09:27:54;;;;;;;93.60;88.75;;;;;;;7.90;71.89;103200.72;5008432;28;19925;-68
2022/01/18 09:30:21;;;;;;;149.05;141.88;;;;;;;7.85;72.13;103198.09;5009166;28;20045;-68
2022/01/18 09:32:48;;;;;;;160.65;152.88;;;;;;;7.42;73.77;103209.44;5008080;28;20669;-68
2022/01/18 09:35:16;;;;;;;184.45;175.32;;;;;;;7.56;73.50;103208.56;5008981;28;20051;-68
2022/01/18 09:37:44;;;;;;;137.48;130.65;;;;;;;7.69;73.28;103212.91;5008537;28;20410;-68
2022/01/18 09:40:14;;;;;;;163.85;155.63;;;;;;;8.00;72.07;103224.19;5008775;28;20507;-68
2022/01/18 09:42:43;;;;;;;116.55;111.05;;;;;;;8.05;72.44;103226.81;5008450;28;20096;-68
2022/01/18 09:45:12;;;;;;;140.85;134.55;;;;;;;8.15;71.34;103228.53;5008090;28;20045;-68
2022/01/18 09:47:42;;;;;;;142.43;135.63;;;;;;;7.75;72.72;103233.81;5008571;28;20531;-68
2022/01/18 09:50:12;;;;;;;143.68;136.32;;;;;;;7.90;72.66;103227.69;5009106;28;20061;-68
2022/01/18 09:52:38;;;;;;;97.90;93.20;;;;;;;7.90;72.38;103230.31;5008629;28;20436;-68
2022/01/18 09:55:09;;;;;;;122.63;116.95;;;;;;;7.88;73.11;103221.59;5008708;28;20156;-68
2022/01/18 09:57:36;;;;;;;161.05;153.00;;;;;;;8.11;71.96;103221.56;5009707;28;20053;-68
2022/01/18 10:00:03;;;;;;;134.38;128.45;;;;;;;8.21;71.07;103232.00;5012623;28;20118;-68
2022/01/18 10:02:30;;;;;;;129.95;123.82;;;;;;;8.01;71.07;103227.69;5012031;28;20042;-68
2022/01/18 10:04:58;;;;;;;88.43;83.93;;;;;;;8.14;69.75;103227.66;5019234;28;20417;-68
2022/01/18 10:07:31;;;;;;;83.05;78.68;;;;;;;8.10;69.75;103220.69;5031698;28;20569;-68
2022/01/18 10:09:59;;;;;;;84.78;80.63;;;;;;;8.05;69.81;103221.59;5031726;28;20473;-68
2022/01/18 10:12:27;;;;;;;84.70;80.53;;;;;;;8.25;69.67;103219.78;5018019;28;20046;-68
2022/01/18 10:14:55;;;;;;;78.47;74.20;;;;;;;8.35;69.37;103216.31;5012048;28;20046;-68
2022/01/18 10:17:30;;;;;;;71.32;67.70;;;;;;;8.35;68.75;103216.31;5011891;28;20054;-69
2022/01/18 10:20:03;;;;;;;72.00;68.43;;;;;;;8.56;68.74;103216.25;5011170;28;20076;-69
2022/01/18 10:22:40;;;;;;;70.85;67.53;;;;;;;8.62;68.44;103213.59;5012110;28;20050;-69
2022/01/18 10:25:17;;;;;;;77.50;73.43;;;;;;;8.72;68.26;103217.06;5012194;28;20038;-69
2022/01/18 10:27:47;;;;;;;75.50;71.95;;;;;;;8.61;67.95;103216.22;5011149;28;20038;-69
2022/01/18 10:30:20;;;;;;;69.97;66.60;;;;;;;8.66;67.91;103215.31;5011147;28;20054;-69
2022/01/18 10:33:07;;;;;;;87.70;83.40;;;;;;;8.61;67.99;103209.22;5007614;28;20136;-68
2022/01/18 10:35:33;;;;;;;123.18;117.50;;;;;;;8.52;67.88;103219.75;5012886;28;20046;-68
2022/01/18 10:37:59;;;;;;;142.82;135.52;;;;;;;8.39;68.10;103204.94;5029164;28;20041;-68
2022/01/18 10:40:26;;;;;;;110.32;105.50;;;;;;;8.41;69.07;103213.69;5027219;28;20096;-68
2022/01/18 10:42:54;;;;;;;109.95;104.80;;;;;;;8.11;69.85;103211.09;5000134;28;20047;-69
2022/01/18 10:45:28;;;;;;;101.28;96.55;;;;;;;8.16;70.18;103209.38;5011717;28;20058;-69
2022/01/18 10:47:57;;;;;;;123.82;117.53;;;;;;;8.49;69.83;103203.19;5010656;28;20056;-68
2022/01/18 10:50:24;;;;;;;123.55;117.25;;;;;;;8.60;69.14;103202.28;5009259;28;20046;-68
2022/01/18 10:52:52;;;;;;;100.03;95.13;;;;;;;8.66;69.21;103196.13;5008847;28;20042;-68
2022/01/18 10:55:22;;;;;;;117.35;111.07;;;;;;;8.75;68.96;103196.09;5008939;28;20051;-69
2022/01/18 10:57:49;;;;;;;139.35;131.90;;;;;;;8.81;69.33;103196.06;5012450;28;20041;-69
2022/01/18 11:00:21;;;;;;;132.35;126.40;;;;;;;8.75;68.91;103198.72;5009386;28;20469;-69
2022/01/18 11:02:50;;;;;;;225.68;212.88;;;;;;;8.60;68.60;103194.44;5009661;28;20057;-69
2022/01/18 11:05:19;;;;;;;127.07;121.22;;;;;;;8.75;68.65;103183.91;5008869;28;20073;-69
2022/01/18 11:07:46;;;;;;;131.73;125.57;;;;;;;8.80;68.79;103176.88;5008410;28;20609;-69
2022/01/18 11:10:14;;;;;;;128.27;121.35;;;;;;;8.95;68.28;103182.88;5008761;28;20050;-69
2022/01/18 11:12:46;;;;;;;126.50;120.53;;;;;;;9.15;67.95;103171.44;5007177;28;20501;-69
2022/01/18 11:15:18;;;;;;;130.52;124.40;;;;;;;9.26;67.45;103172.22;5008832;28;20075;-69
2022/01/18 11:17:51;;;;;;;133.48;126.82;;;;;;;9.06;68.25;103170.59;5008867;28;20124;-69
2022/01/18 11:20:18;;;;;;;124.38;118.28;;;;;;;9.20;67.77;103174.84;5009822;28;20180;-69
2022/01/18 11:22:48;;;;;;;118.80;112.38;;;;;;;8.98;68.81;103175.88;4989616;28;20046;-69
2022/01/18 11:25:15;;;;;;;129.10;122.65;;;;;;;8.92;69.01;103169.81;4989742;28;20490;-70
2022/01/18 11:27:43;;;;;;;121.28;115.97;;;;;;;8.82;69.15;103165.53;4990635;28;20054;-70
2022/01/18 11:30:10;;;;;;;121.82;116.13;;;;;;;9.04;69.12;103156.66;5008534;28;20520;-70
2022/01/18 11:32:37;;;;;;;111.93;106.57;;;;;;;9.08;68.57;103150.53;5001896;28;20597;-70
2022/01/18 11:35:12;;;;;;;119.03;113.10;;;;;;;8.86;69.49;103159.41;5005280;28;20556;-70
2022/01/18 11:37:44;;;;;;;126.30;120.55;;;;;;;8.89;69.77;103162.88;5007930;28;20048;-70
2022/01/18 11:40:13;;;;;;;122.80;117.10;;;;;;;9.05;69.19;103161.03;5007009;28;20073;-70
2022/01/18 11:42:49;;;;;;;141.82;134.90;;;;;;;8.73;70.74;103163.84;5002135;28;20128;-69
2022/01/18 11:45:39;;;;;;;119.50;113.93;;;;;;;8.69;71.74;103162.97;5009999;28;20037;-69
2022/01/18 11:48:12;;;;;;;112.90;106.43;;;;;;;8.86;71.89;103157.66;5009759;28;20041;-70
2022/01/18 11:50:42;;;;;;;154.10;146.30;;;;;;;9.15;70.17;103153.09;5010782;28;20042;-69
2022/01/18 11:53:24;;;;;;;189.30;180.40;;;;;;;8.92;71.39;103156.75;5008281;28;20060;-69
2022/01/18 11:55:53;;;;;;;134.00;127.25;;;;;;;8.69;71.47;103162.09;4990985;28;20097;-69
2022/01/18 11:58:19;;;;;;;213.90;203.18;;;;;;;9.05;69.79;103161.03;5006650;28;20555;-69
2022/01/18 12:00:52;;;;;;;174.15;165.52;;;;;;;8.78;69.17;103160.34;5014547;28;20049;-69